Time;durP1;ratioP1;P1;durP2;ratioP2;P2;SDS_P1;SDS_P2;PMS_P1;PMS_P2;Temp;Humidity;BMP_temperature;BMP_pressure;BME280_temperature;BME280_humidity;BME280_pressure;Samples;Min_cycle;Max_cycle;Signal;HPM_P1;HPM_P2
2021/06/22 00:01:24;;;;;;;13.00;8.05;;;;;;;22.53;62.64;99191.25;5049042;28;20025;-80
2021/06/22 00:03:49;;;;;;;10.68;7.53;;;;;;;22.66;62.33;99185.81;5043565;28;20044;-79
2021/06/22 00:06:15;;;;;;;15.20;8.93;;;;;;;22.84;61.53;99180.69;5035601;28;20050;-79
2021/06/22 00:08:40;;;;;;;11.90;8.82;;;;;;;22.95;61.40;99180.56;5038712;28;20613;-79
2021/06/22 00:11:06;;;;;;;10.25;8.68;;;;;;;22.87;61.41;99179.06;5036757;28;20105;-80
2021/06/22 00:13:31;;;;;;;9.15;8.25;;;;;;;22.80;61.49;99167.72;5031984;28;20471;-83
2021/06/22 00:15:57;;;;;;;10.98;8.55;;;;;;;22.93;61.35;99180.19;5044241;28;20039;-83
2021/06/22 00:18:22;;;;;;;13.85;8.35;;;;;;;22.86;61.31;99177.41;5049418;28;20060;-80
2021/06/22 00:20:48;;;;;;;10.35;8.82;;;;;;;22.70;61.83;99180.88;5040649;28;20262;-79
2021/06/22 00:23:13;;;;;;;11.70;8.25;;;;;;;22.43;62.62;99173.00;5045860;28;20124;-78
2021/06/22 00:25:39;;;;;;;9.98;8.52;;;;;;;22.30;62.76;99169.88;5045960;28;20025;-78
2021/06/22 00:28:04;;;;;;;12.00;7.97;;;;;;;22.21;63.02;99163.88;5051031;28;20029;-78
2021/06/22 00:30:30;;;;;;;11.80;8.15;;;;;;;22.13;63.39;99166.78;5044651;28;20121;-79
2021/06/22 00:32:55;;;;;;;14.40;8.75;;;;;;;22.08;63.22;99172.13;5051051;28;20032;-78
2021/06/22 00:35:21;;;;;;;10.27;9.00;;;;;;;22.03;63.62;99179.09;5049407;28;20097;-79
2021/06/22 00:37:46;;;;;;;16.48;9.00;;;;;;;21.80;64.05;99176.84;5050737;28;20032;-78
2021/06/22 00:40:14;;;;;;;14.25;8.52;;;;;;;21.68;64.53;99178.19;5039454;28;20408;-79
2021/06/22 00:42:41;;;;;;;10.73;8.55;;;;;;;21.63;64.54;99185.09;5042651;28;20034;-78
2021/06/22 00:45:07;;;;;;;14.00;8.20;;;;;;;21.51;64.64;99177.06;5049528;28;20487;-77
2021/06/22 00:47:32;;;;;;;10.90;8.40;;;;;;;21.38;64.88;99177.53;5037481;28;20040;-77
2021/06/22 00:49:58;;;;;;;10.70;8.43;;;;;;;21.37;64.99;99177.94;5036180;28;20032;-79
2021/06/22 00:52:29;;;;;;;10.02;8.98;;;;;;;21.34;64.94;99168.19;5052668;28;20020;-78
2021/06/22 00:54:56;;;;;;;11.25;8.70;;;;;;;21.33;65.04;99175.13;5043571;28;20060;-78
2021/06/22 00:57:23;;;;;;;14.77;9.02;;;;;;;21.33;64.85;99183.66;5040856;28;20045;-78
2021/06/22 00:59:49;;;;;;;9.00;7.95;;;;;;;21.25;65.19;99185.72;5037979;28;20030;-78
2021/06/22 01:02:16;;;;;;;13.70;8.95;;;;;;;21.24;65.40;99186.16;5032713;28;20030;-79
2021/06/22 01:04:42;;;;;;;12.98;9.10;;;;;;;21.20;65.59;99186.19;5049114;28;20056;-79
2021/06/22 01:07:11;;;;;;;15.93;9.02;;;;;;;21.20;65.36;99179.66;5040820;28;20107;-77
2021/06/22 01:09:37;;;;;;;13.43;8.57;;;;;;;21.12;65.93;99179.72;5038412;28;20029;-78
2021/06/22 01:12:05;;;;;;;12.77;8.27;;;;;;;21.12;65.93;99190.28;5048864;28;20036;-77
2021/06/22 01:14:30;;;;;;;13.38;9.32;;;;;;;21.05;66.15;99191.13;5045492;28;20033;-78
2021/06/22 01:16:56;;;;;;;11.73;8.73;;;;;;;20.94;66.13;99196.06;5042951;28;20482;-76
2021/06/22 01:19:23;;;;;;;13.25;9.40;;;;;;;20.82;66.49;99194.50;5047150;28;20522;-79
2021/06/22 01:21:48;;;;;;;11.90;8.48;;;;;;;20.77;66.65;99192.84;5045234;28;20486;-78
2021/06/22 01:24:21;;;;;;;16.58;9.52;;;;;;;20.85;66.29;99190.81;5043137;28;20094;-79
2021/06/22 01:26:59;;;;;;;12.48;7.80;;;;;;;21.00;66.00;99185.88;5044805;28;20037;-78
2021/06/22 01:29:26;;;;;;;9.52;8.05;;;;;;;21.06;65.50;99175.69;5051408;28;20529;-78
2021/06/22 01:31:52;;;;;;;10.48;8.45;;;;;;;21.12;65.47;99161.84;5052626;28;20398;-79
2021/06/22 01:34:26;;;;;;;10.35;7.45;;;;;;;21.08;65.51;99161.06;5043465;28;20034;-79
2021/06/22 01:36:54;;;;;;;10.30;8.05;;;;;;;21.07;65.45;99146.03;5050183;28;20024;-78
2021/06/22 01:39:19;;;;;;;15.82;8.18;;;;;;;21.31;64.78;99135.75;5052593;28;20040;-78
2021/06/22 01:41:45;;;;;;;13.02;7.85;;;;;;;21.41;64.39;99138.91;5052725;28;20082;-78
2021/06/22 01:44:11;;;;;;;12.98;7.82;;;;;;;21.63;63.67;99127.34;5039496;28;20033;-78
2021/06/22 01:46:37;;;;;;;9.75;7.35;;;;;;;21.77;62.96;99126.47;5053693;28;20025;-79
2021/06/22 01:49:04;;;;;;;7.93;7.13;;;;;;;21.86;62.92;99132.50;5053810;28;20029;-78
2021/06/22 01:51:30;;;;;;;12.35;8.07;;;;;;;21.99;62.48;99139.28;5051303;28;20501;-78
2021/06/22 01:53:58;;;;;;;12.93;7.53;;;;;;;22.07;62.16;99140.00;5051444;28;20033;-79
2021/06/22 01:56:26;;;;;;;9.63;7.07;;;;;;;22.06;62.32;99137.56;5053372;28;20024;-79
2021/06/22 01:58:52;;;;;;;11.10;7.38;;;;;;;21.89;62.94;99148.72;5053591;28;20072;-79
2021/06/22 02:01:18;;;;;;;11.88;7.47;;;;;;;21.73;63.46;99127.31;5047525;28;20039;-78
2021/06/22 02:03:43;;;;;;;13.20;7.95;;;;;;;21.51;64.02;99145.75;5045864;28;20036;-78
2021/06/22 02:06:09;;;;;;;10.90;7.55;;;;;;;21.51;64.23;99152.25;5053677;28;20517;-79
2021/06/22 02:08:34;;;;;;;13.40;8.10;;;;;;;21.41;64.71;99150.28;5053800;28;20093;-79
2021/06/22 02:11:00;;;;;;;11.57;7.60;;;;;;;21.31;64.67;99147.13;5042183;28;20483;-79
2021/06/22 02:13:27;;;;;;;10.23;7.25;;;;;;;21.30;64.90;99144.69;5047188;28;20480;-78
2021/06/22 02:15:54;;;;;;;10.80;7.43;;;;;;;21.34;64.76;99145.44;5050293;28;20083;-79
2021/06/22 02:18:20;;;;;;;19.83;9.02;;;;;;;21.29;65.15;99143.06;5046523;28;20115;-79
2021/06/22 02:20:46;;;;;;;14.15;6.95;;;;;;;21.32;64.66;99150.75;5045194;28;20045;-79
2021/06/22 02:23:12;;;;;;;16.23;8.23;;;;;;;21.20;65.10;99143.53;5050067;28;20033;-79
2021/06/22 02:25:39;;;;;;;20.38;8.73;;;;;;;21.27;64.75;99128.47;5047665;28;20106;-78
2021/06/22 02:28:09;;;;;;;8.32;6.97;;;;;;;21.27;64.82;99134.94;5045137;28;20407;-79
2021/06/22 02:30:36;;;;;;;10.32;7.85;;;;;;;21.30;64.59;99127.63;5044498;28;20037;-79
2021/06/22 02:33:02;;;;;;;15.45;7.60;;;;;;;21.18;65.01;99112.66;5041370;28;20045;-78
2021/06/22 02:35:29;;;;;;;8.77;7.88;;;;;;;21.35;64.35;99112.16;5041793;28;20033;-78
2021/06/22 02:37:55;;;;;;;12.02;8.30;;;;;;;21.37;64.20;99119.03;5044807;28;20026;-78
2021/06/22 02:40:21;;;;;;;11.60;7.78;;;;;;;21.20;64.69;99119.97;5046173;28;20072;-79
2021/06/22 02:42:47;;;;;;;13.90;7.60;;;;;;;21.00;65.44;99114.81;5047203;28;20025;-78
2021/06/22 02:45:14;;;;;;;11.52;6.97;;;;;;;20.78;65.95;99114.91;5030785;28;20522;-79
2021/06/22 02:47:40;;;;;;;10.73;8.02;;;;;;;20.70;66.37;99124.66;5037628;28;20025;-77
2021/06/22 02:50:06;;;;;;;12.40;8.10;;;;;;;20.70;66.38;99136.03;5037759;28;20043;-78
2021/06/22 02:52:32;;;;;;;10.30;8.20;;;;;;;20.73;66.33;99138.03;5041743;28;20402;-79
2021/06/22 02:54:57;;;;;;;12.10;7.90;;;;;;;20.81;65.87;99124.59;5032831;28;20125;-78
2021/06/22 02:57:23;;;;;;;15.45;8.65;;;;;;;21.00;65.29;99123.34;5043695;28;20021;-78
2021/06/22 02:59:49;;;;;;;23.00;9.02;;;;;;;21.07;65.22;99119.66;5037156;28;20557;-76
2021/06/22 03:02:14;;;;;;;15.15;7.85;;;;;;;21.10;64.81;99130.19;5035992;28;20112;-77
2021/06/22 03:04:40;;;;;;;12.23;7.95;;;;;;;21.24;64.19;99126.44;5043692;28;20047;-78
2021/06/22 03:07:05;;;;;;;11.38;7.18;;;;;;;21.42;63.63;99126.31;5038721;28;20044;-77
2021/06/22 03:09:31;;;;;;;15.23;7.10;;;;;;;21.44;63.50;99127.50;5043682;28;20032;-80
2021/06/22 03:11:57;;;;;;;21.35;7.55;;;;;;;21.53;63.52;99112.78;5046355;28;20053;-78
2021/06/22 03:14:23;;;;;;;16.45;7.15;;;;;;;21.60;63.20;99112.75;5046425;28;20029;-75
2021/06/22 03:16:50;;;;;;;10.10;7.28;;;;;;;21.64;63.10;99129.78;5047040;28;20056;-73
2021/06/22 03:19:15;;;;;;;17.40;8.18;;;;;;;21.68;63.27;99124.91;5045205;28;20057;-73
2021/06/22 03:21:43;;;;;;;12.52;8.38;;;;;;;21.56;63.98;99134.75;5047041;28;20367;-74
2021/06/22 03:24:13;;;;;;;10.70;7.32;;;;;;;21.57;63.89;99124.16;5049638;28;20521;-73
2021/06/22 03:26:39;;;;;;;;;;;;;;;21.60;63.89;99131.88;5049748;28;20033;-75
2021/06/22 03:29:05;;;;;;;12.98;7.78;;;;;;;21.62;63.91;99142.81;5048452;28;20578;-76
2021/06/22 03:31:31;;;;;;;19.98;7.65;;;;;;;21.74;63.37;99133.81;5047097;28;20029;-75
2021/06/22 03:33:56;;;;;;;25.88;7.97;;;;;;;21.88;63.64;99130.03;5049524;28;20102;-75
2021/06/22 03:36:22;;;;;;;15.23;7.65;;;;;;;21.97;62.78;99135.22;5048510;28;20495;-75
2021/06/22 03:38:48;;;;;;;8.65;7.60;;;;;;;22.01;63.11;99136.00;5049494;28;20428;-75
2021/06/22 03:41:13;;;;;;;18.83;7.68;;;;;;;22.10;62.87;99133.47;5051365;28;20021;-75
2021/06/22 03:43:39;;;;;;;13.23;7.65;;;;;;;22.14;62.81;99141.97;5051762;28;20542;-75
2021/06/22 03:46:07;;;;;;;22.67;7.63;;;;;;;22.08;62.97;99146.50;5049826;28;20032;-75
2021/06/22 03:48:33;;;;;;;12.52;7.35;;;;;;;21.97;63.16;99130.34;5050942;28;20028;-75
2021/06/22 03:50:59;;;;;;;16.08;8.65;;;;;;;21.98;63.37;99131.97;5049071;28;20412;-75
2021/06/22 03:53:25;;;;;;;9.50;7.45;;;;;;;21.99;63.21;99149.84;5051266;28;20037;-75
2021/06/22 03:55:51;;;;;;;10.75;8.35;;;;;;;21.80;63.78;99134.97;5051018;28;20036;-75
2021/06/22 03:58:16;;;;;;;14.73;8.20;;;;;;;21.74;64.09;99131.78;5050041;28;20021;-75
2021/06/22 04:00:42;;;;;;;14.30;8.13;;;;;;;21.69;64.48;99142.81;5046597;28;20040;-75
2021/06/22 04:03:07;;;;;;;15.68;7.85;;;;;;;21.63;65.15;99138.75;5045085;28;20075;-75
2021/06/22 04:05:33;;;;;;;19.77;9.43;;;;;;;21.45;65.94;99145.38;5040414;28;20036;-75
2021/06/22 04:08:00;;;;;;;14.15;8.85;;;;;;;21.33;66.64;99143.84;5051143;28;20021;-75
2021/06/22 04:10:27;;;;;;;9.02;8.10;;;;;;;21.20;66.91;99152.06;5046357;28;20191;-75
2021/06/22 04:12:53;;;;;;;11.25;8.13;;;;;;;21.21;67.04;99148.00;5046019;28;20501;-75
2021/06/22 04:15:19;;;;;;;15.27;9.25;;;;;;;21.24;67.06;99157.72;5050858;28;20103;-75
2021/06/22 04:17:44;;;;;;;21.77;9.13;;;;;;;21.14;67.34;99165.91;5051170;28;20112;-75
2021/06/22 04:20:11;;;;;;;15.40;8.82;;;;;;;21.18;67.35;99158.16;5036822;28;20055;-75
2021/06/22 04:22:36;;;;;;;11.55;9.90;;;;;;;21.32;67.24;99159.28;5050995;28;20029;-75
2021/06/22 04:25:04;;;;;;;11.50;9.43;;;;;;;21.36;67.31;99171.47;5049000;28;20083;-75
2021/06/22 04:27:29;;;;;;;11.43;9.00;;;;;;;21.35;67.21;99163.34;5050845;28;20037;-75
2021/06/22 04:29:55;;;;;;;22.92;10.65;;;;;;;21.40;67.34;99172.25;5047474;28;20231;-81
2021/06/22 04:32:21;;;;;;;19.83;11.10;;;;;;;21.46;67.41;99169.75;5046322;28;20399;-81
2021/06/22 04:34:46;;;;;;;16.75;9.25;;;;;;;21.57;66.99;99179.03;5043811;28;20033;-80
2021/06/22 04:37:12;;;;;;;15.60;9.55;;;;;;;21.66;67.20;99169.19;5050472;28;20017;-81
2021/06/22 04:39:37;;;;;;;14.20;9.20;;;;;;;21.72;67.13;99165.53;5050561;28;20037;-79
2021/06/22 04:42:03;;;;;;;13.13;9.95;;;;;;;21.83;66.94;99164.63;5045752;28;20479;-80
2021/06/22 04:44:28;;;;;;;12.38;9.20;;;;;;;21.94;67.11;99173.09;5049430;28;20117;-81
2021/06/22 04:46:54;;;;;;;13.13;9.10;;;;;;;21.93;66.93;99162.94;5050520;28;20029;-81
2021/06/22 04:49:19;;;;;;;18.20;9.23;;;;;;;22.06;67.04;99160.34;5050502;28;20469;-81
2021/06/22 04:51:45;;;;;;;10.80;8.57;;;;;;;22.09;66.79;99174.56;5050546;28;20456;-81
2021/06/22 04:54:11;;;;;;;11.25;8.75;;;;;;;22.16;66.61;99180.19;5050270;28;20039;-81
2021/06/22 04:56:38;;;;;;;11.45;8.98;;;;;;;22.27;66.70;99177.22;5050246;28;20047;-81
2021/06/22 04:59:03;;;;;;;11.98;8.73;;;;;;;22.38;66.19;99176.31;5045633;28;20037;-81
2021/06/22 05:01:29;;;;;;;14.15;8.30;;;;;;;22.45;66.31;99179.09;5048002;28;20019;-81
2021/06/22 05:03:55;;;;;;;16.75;9.38;;;;;;;22.45;65.77;99167.69;5050363;28;20116;-80
2021/06/22 05:06:22;;;;;;;17.38;9.68;;;;;;;22.62;65.36;99173.63;5048564;28;20059;-81
2021/06/22 05:08:48;;;;;;;11.00;8.85;;;;;;;22.56;65.41;99159.06;5050093;28;20095;-80
2021/06/22 05:11:13;;;;;;;13.57;8.85;;;;;;;22.84;64.46;99172.16;5046285;28;20478;-79
2021/06/22 05:13:40;;;;;;;19.00;7.80;;;;;;;22.85;64.77;99173.75;5048697;28;20473;-80
2021/06/22 05:16:06;;;;;;;16.85;8.98;;;;;;;22.97;64.08;99178.06;5049860;28;20029;-82
2021/06/22 05:18:32;;;;;;;10.32;8.27;;;;;;;23.10;63.35;99178.31;5048517;28;20041;-79
2021/06/22 05:20:57;;;;;;;16.23;8.10;;;;;;;23.24;62.26;99176.50;5050020;28;20517;-79
2021/06/22 05:23:23;;;;;;;17.60;8.60;;;;;;;23.20;62.84;99176.56;5050387;28;20509;-79
2021/06/22 05:25:48;;;;;;;16.90;8.27;;;;;;;23.23;62.53;99172.88;5050077;28;20506;-78
2021/06/22 05:28:13;;;;;;;12.75;8.68;;;;;;;23.32;62.55;99175.22;5050291;28;20040;-79
2021/06/22 05:30:39;;;;;;;12.50;8.75;;;;;;;23.25;63.12;99178.13;5050064;28;20040;-79
2021/06/22 05:33:06;;;;;;;17.60;9.48;;;;;;;23.08;63.90;99180.81;5045692;28;20079;-80
2021/06/22 05:35:32;;;;;;;16.13;9.23;;;;;;;23.24;63.31;99176.50;5047772;28;20033;-79
2021/06/22 05:37:58;;;;;;;14.40;9.00;;;;;;;23.27;62.40;99181.38;5050131;28;20040;-79
2021/06/22 05:40:24;;;;;;;16.77;9.50;;;;;;;23.35;61.96;99182.91;5048858;28;20029;-79
2021/06/22 05:42:50;;;;;;;16.98;10.48;;;;;;;23.37;61.93;99174.72;5045085;28;20083;-78
2021/06/22 05:45:16;;;;;;;22.63;11.73;;;;;;;23.45;62.35;99188.88;5036758;28;20045;-78
2021/06/22 05:47:41;;;;;;;23.05;13.00;;;;;;;23.32;62.18;99186.63;5047705;28;20037;-79
2021/06/22 05:50:08;;;;;;;22.75;10.93;;;;;;;23.55;60.51;99183.00;5049805;28;20029;-81
2021/06/22 05:52:34;;;;;;;15.90;11.05;;;;;;;23.70;59.71;99189.31;5048263;28;20029;-80
2021/06/22 05:54:59;;;;;;;17.67;12.38;;;;;;;23.82;60.46;99185.03;5049801;28;20037;-80
2021/06/22 05:57:25;;;;;;;17.65;11.85;;;;;;;23.87;59.79;99180.88;5049653;28;20036;-80
2021/06/22 05:59:50;;;;;;;20.25;10.07;;;;;;;23.82;59.95;99185.03;5049556;28;20032;-80
2021/06/22 06:02:16;;;;;;;18.08;10.50;;;;;;;23.80;61.12;99181.00;5049686;28;20040;-80
2021/06/22 06:04:42;;;;;;;27.48;10.52;;;;;;;24.04;61.16;99189.59;5049684;28;20040;-81
2021/06/22 06:07:07;;;;;;;10.38;8.20;;;;;;;24.04;60.64;99189.59;5045122;28;20068;-81
2021/06/22 06:09:33;;;;;;;13.07;7.32;;;;;;;23.99;59.01;99185.16;5045118;28;20418;-81
2021/06/22 06:11:58;;;;;;;15.38;8.05;;;;;;;23.86;60.01;99190.69;5049650;28;20074;-80
2021/06/22 06:14:24;;;;;;;12.98;8.40;;;;;;;23.79;60.38;99190.81;5053101;28;20044;-82
2021/06/22 06:16:50;;;;;;;19.00;8.40;;;;;;;23.97;59.09;99179.88;5053198;28;20033;-80
2021/06/22 06:19:15;;;;;;;15.73;9.48;;;;;;;24.17;58.63;99187.75;5052992;28;20140;-80
2021/06/22 06:21:41;;;;;;;12.35;9.60;;;;;;;24.39;56.74;99187.34;5052945;28;20493;-79
2021/06/22 06:24:07;;;;;;;11.35;8.55;;;;;;;24.46;56.73;99184.34;5053067;28;20341;-80
2021/06/22 06:29:18;;;;;;;10.18;7.18;;;;;;;24.53;56.21;99197.69;5053099;28;20091;-80
2021/06/22 06:31:44;;;;;;;10.35;7.70;;;;;;;24.68;56.84;99193.31;5052842;28;20029;-81
2021/06/22 06:34:09;;;;;;;13.73;7.50;;;;;;;24.94;55.45;99190.78;5052898;28;20044;-81
2021/06/22 06:36:35;;;;;;;15.05;7.35;;;;;;;25.01;54.45;99197.59;5048360;28;20102;-80
2021/06/22 06:39:00;;;;;;;13.90;7.70;;;;;;;24.92;55.13;99195.31;5046124;28;20041;-81
2021/06/22 06:41:26;;;;;;;8.23;7.40;;;;;;;25.01;55.25;99191.84;5052768;28;20125;-82
2021/06/22 06:43:51;;;;;;;9.70;6.88;;;;;;;25.15;56.64;99193.63;5048208;28;20048;-81
2021/06/22 06:46:16;;;;;;;13.57;7.45;;;;;;;25.40;55.17;99195.94;5052388;28;20029;-81
2021/06/22 06:48:42;;;;;;;8.13;6.85;;;;;;;25.35;53.41;99199.28;5048239;28;20451;-82
2021/06/22 06:51:08;;;;;;;10.77;6.72;;;;;;;25.44;53.28;99210.13;5048904;28;20095;-79
2021/06/22 06:53:34;;;;;;;7.40;6.70;;;;;;;25.36;53.22;99201.72;5053235;28;20036;-84
2021/06/22 06:55:59;;;;;;;12.13;7.15;;;;;;;25.53;53.41;99201.00;5052689;28;20040;-80
2021/06/22 06:58:24;;;;;;;9.30;7.15;;;;;;;25.53;53.69;99201.00;5053053;28;20029;-82
2021/06/22 07:00:50;;;;;;;11.07;7.10;;;;;;;25.76;52.21;99205.75;5048113;28;20034;-82
2021/06/22 07:03:15;;;;;;;9.05;7.00;;;;;;;25.85;52.60;99208.78;5033881;28;20029;-84
2021/06/22 07:05:41;;;;;;;7.35;6.45;;;;;;;25.95;53.28;99206.13;5033471;28;20091;-76
2021/06/22 07:08:07;;;;;;;9.73;7.07;;;;;;;26.04;53.03;99204.22;5048579;28;20024;-80
2021/06/22 07:10:33;;;;;;;20.77;7.50;;;;;;;26.18;53.46;99202.25;5047720;28;20091;-78
2021/06/22 07:13:02;;;;;;;14.00;7.43;;;;;;;26.27;53.40;99199.59;5047821;28;20021;-76
2021/06/22 07:15:28;;;;;;;9.32;7.75;;;;;;;26.35;52.92;99192.38;5049016;28;20029;-77
2021/06/22 07:17:53;;;;;;;10.32;7.43;;;;;;;26.50;51.57;99203.50;5048588;28;20406;-77
2021/06/22 07:20:19;;;;;;;12.15;7.63;;;;;;;26.59;52.42;99202.81;5050843;28;20044;-77
2021/06/22 07:22:45;;;;;;;9.73;7.40;;;;;;;26.70;51.82;99209.06;5049047;28;20025;-78
2021/06/22 07:25:11;;;;;;;9.65;6.95;;;;;;;26.86;51.33;99204.53;5047026;28;20032;-74
2021/06/22 07:27:36;;;;;;;11.63;7.78;;;;;;;26.90;51.55;99208.94;5047209;28;20393;-75
2021/06/22 07:30:03;;;;;;;16.50;7.20;;;;;;;27.09;50.33;99205.53;5046058;28;20056;-73
2021/06/22 07:32:28;;;;;;;13.68;7.25;;;;;;;27.15;50.42;99215.19;5049839;28;20017;-79
2021/06/22 07:34:54;;;;;;;8.57;6.75;;;;;;;27.10;50.14;99215.75;5046999;28;20091;-72
2021/06/22 07:37:19;;;;;;;7.05;6.35;;;;;;;27.12;49.12;99214.03;5049906;28;20032;-79
2021/06/22 07:39:45;;;;;;;12.63;6.97;;;;;;;27.13;48.90;99212.78;5051510;28;20077;-84
2021/06/22 07:42:10;;;;;;;14.32;7.10;;;;;;;27.09;50.50;99217.84;5046834;28;20026;-79
2021/06/22 07:44:36;;;;;;;12.02;7.32;;;;;;;26.75;50.28;99210.59;5051507;28;20045;-80
2021/06/22 07:47:02;;;;;;;14.25;7.40;;;;;;;27.02;51.68;99212.28;5051442;28;20025;-80
2021/06/22 07:49:27;;;;;;;8.25;6.13;;;;;;;26.80;51.71;99215.75;5046715;28;20503;-81
2021/06/22 07:51:53;;;;;;;11.40;5.88;;;;;;;26.85;51.64;99217.25;5041434;28;20459;-81
2021/06/22 07:54:18;;;;;;;34.38;7.72;;;;;;;27.24;51.06;99217.41;5051139;28;20029;-78
2021/06/22 07:56:44;;;;;;;15.15;6.47;;;;;;;27.70;49.71;99212.31;5051263;28;20467;-76
2021/06/22 07:59:09;;;;;;;15.85;6.85;;;;;;;27.96;49.56;99209.41;5051159;28;20037;-78
2021/06/22 08:01:35;;;;;;;7.32;6.60;;;;;;;28.22;47.36;99218.00;5049771;28;20028;-79
2021/06/22 08:04:01;;;;;;;12.43;5.95;;;;;;;28.27;47.10;99216.63;5046446;28;20045;-74
2021/06/22 08:06:26;;;;;;;8.18;6.63;;;;;;;28.21;47.30;99219.28;5048776;28;20028;-82
2021/06/22 08:08:51;;;;;;;7.18;5.40;;;;;;;28.21;45.69;99216.41;5049887;28;20072;-79
2021/06/22 08:11:17;;;;;;;7.82;5.70;;;;;;;28.06;46.04;99218.91;5046081;28;20487;-79
2021/06/22 08:13:43;;;;;;;13.68;6.60;;;;;;;28.02;48.02;99224.00;5037456;28;20064;-81
2021/06/22 08:16:09;;;;;;;10.38;6.28;;;;;;;27.74;49.72;99220.78;5046182;28;20072;-75
2021/06/22 08:18:34;;;;;;;10.90;6.45;;;;;;;28.38;46.31;99217.06;5045837;28;20057;-78
2021/06/22 08:21:02;;;;;;;6.55;5.68;;;;;;;28.49;44.67;99219.53;5037964;28;20032;-77
2021/06/22 08:23:28;;;;;;;11.63;5.93;;;;;;;28.43;47.44;99212.78;5043902;28;20037;-77
2021/06/22 08:25:54;;;;;;;9.77;6.10;;;;;;;28.64;47.22;99205.44;5040714;28;20032;-75
2021/06/22 08:28:19;;;;;;;7.97;5.95;;;;;;;28.93;44.58;99203.63;5049361;28;20036;-81
2021/06/22 08:30:46;;;;;;;10.10;5.75;;;;;;;29.08;45.04;99203.84;5050601;28;20408;-80
2021/06/22 08:33:12;;;;;;;6.75;5.70;;;;;;;29.13;43.74;99211.91;5046023;28;20487;-75
2021/06/22 08:35:38;;;;;;;10.73;6.28;;;;;;;29.13;46.10;99218.44;5045796;28;20033;-79
2021/06/22 08:38:08;;;;;;;16.95;6.47;;;;;;;29.16;45.53;99213.84;5042961;28;20048;-79
2021/06/22 08:40:36;;;;;;;9.80;5.60;;;;;;;29.09;44.89;99211.25;5048941;28;20423;-79
2021/06/22 08:43:02;;;;;;;10.18;5.10;;;;;;;29.49;43.89;99216.28;5045929;28;20448;-81
2021/06/22 08:45:28;;;;;;;6.80;5.45;;;;;;;29.71;44.96;99221.19;5043602;28;20035;-79
2021/06/22 08:47:53;;;;;;;9.90;6.40;;;;;;;29.96;43.54;99213.59;5049145;28;20032;-80
2021/06/22 08:50:21;;;;;;;10.30;6.53;;;;;;;30.08;42.85;99206.94;5050246;28;20044;-79
2021/06/22 08:52:47;;;;;;;8.15;5.82;;;;;;;30.10;43.02;99204.38;5050114;28;20226;-80
2021/06/22 08:55:31;;;;;;;6.65;5.70;;;;;;;29.91;44.04;99206.38;5045653;28;20377;-76
2021/06/22 08:58:01;;;;;;;8.55;6.70;;;;;;;29.55;45.33;99205.75;5048408;28;20165;-76
2021/06/22 09:00:27;;;;;;;;;;;;;;;29.99;43.59;99203.97;5049543;28;20083;-82
2021/06/22 09:03:00;;;;;;;10.50;6.28;;;;;;;30.07;44.45;99208.22;5050375;28;19991;-77
2021/06/22 09:05:26;;;;;;;11.02;6.07;;;;;;;29.77;44.67;99202.00;5050271;28;20039;-80
2021/06/22 09:07:53;;;;;;;13.10;5.70;;;;;;;30.19;44.54;99197.03;5048697;28;20634;-80
2021/06/22 09:10:31;;;;;;;6.18;5.32;;;;;;;30.53;42.01;99186.47;5043024;28;20026;-80
2021/06/22 09:13:19;;;;;;;12.68;5.38;;;;;;;30.80;43.39;99191.44;5041114;28;20033;-76
2021/06/22 09:15:46;;;;;;;7.20;5.80;;;;;;;30.49;41.45;99189.53;5049717;28;20462;-78
2021/06/22 09:18:25;;;;;;;8.20;6.20;;;;;;;30.88;42.08;99183.25;5048648;28;20033;-77
2021/06/22 09:20:51;;;;;;;7.70;6.07;;;;;;;30.73;39.53;99188.09;5048968;28;20040;-77
2021/06/22 09:23:22;;;;;;;13.25;5.95;;;;;;;31.10;40.37;99188.84;5050191;28;20489;-75
2021/06/22 09:25:49;;;;;;;15.38;6.00;;;;;;;30.99;39.27;99190.63;5049893;28;20061;-78
2021/06/22 09:28:17;;;;;;;7.72;6.13;;;;;;;31.15;40.40;99183.69;5048628;28;20041;-80
2021/06/22 09:30:50;;;;;;;10.25;5.85;;;;;;;31.36;39.68;99173.22;5045390;28;20244;-79
2021/06/22 09:33:25;;;;;;;11.55;5.68;;;;;;;31.29;38.87;99176.47;5036853;28;20021;-79
2021/06/22 09:36:01;;;;;;;11.75;5.47;;;;;;;31.50;39.53;99175.44;5045466;28;20556;-80
2021/06/22 09:38:32;;;;;;;11.80;5.93;;;;;;;31.43;39.26;99169.19;5046872;28;20037;-78
2021/06/22 09:41:07;;;;;;;10.13;5.80;;;;;;;31.73;39.29;99175.94;5049626;28;20040;-77
2021/06/22 09:43:42;;;;;;;13.07;6.18;;;;;;;31.90;38.50;99169.81;5049760;28;20059;-80
2021/06/22 09:46:08;;;;;;;26.08;7.07;;;;;;;32.07;37.80;99170.19;5048306;28;20047;-83
2021/06/22 09:48:53;;;;;;;16.02;6.35;;;;;;;31.88;36.44;99170.28;5052478;28;20029;-77
2021/06/22 09:51:29;;;;;;;14.98;6.10;;;;;;;31.81;38.50;99167.78;5053406;28;20025;-78
2021/06/22 09:53:55;;;;;;;13.25;6.32;;;;;;;31.83;38.12;99162.28;5053660;28;20033;-82
2021/06/22 09:56:25;;;;;;;9.63;6.68;;;;;;;32.14;36.94;99160.34;5053399;28;20383;-82
2021/06/22 09:58:51;;;;;;;11.90;6.00;;;;;;;32.07;38.49;99159.41;5053376;28;20033;-78
2021/06/22 10:01:35;;;;;;;9.70;6.13;;;;;;;31.93;40.17;99155.16;5053440;28;20037;-79
2021/06/22 10:04:33;;;;;;;11.27;6.40;;;;;;;32.35;37.94;99161.31;5051345;28;20033;-78
2021/06/22 10:07:00;;;;;;;16.73;6.78;;;;;;;32.17;36.77;99150.66;5016705;28;20503;-80
2021/06/22 10:09:27;;;;;;;9.30;6.15;;;;;;;32.16;39.21;99155.66;5051290;28;20492;-82
2021/06/22 10:12:06;;;;;;;15.13;6.45;;;;;;;32.32;36.02;99160.19;5050095;28;20452;-81
2021/06/22 10:14:34;;;;;;;20.25;6.63;;;;;;;32.19;36.36;99154.66;5051285;28;20025;-81
2021/06/22 10:17:02;;;;;;;10.88;6.38;;;;;;;32.22;35.69;99147.09;5049760;28;20029;-82
2021/06/22 10:19:29;;;;;;;11.07;6.25;;;;;;;32.29;35.95;99149.59;5046277;28;20060;-84
2021/06/22 10:21:55;;;;;;;13.10;6.47;;;;;;;32.12;36.76;99145.56;5042982;28;20129;-80
2021/06/22 10:24:22;;;;;;;27.52;8.68;;;;;;;32.42;37.45;99139.88;5032089;28;20531;-79
2021/06/22 10:26:48;;;;;;;9.52;5.38;;;;;;;32.33;35.34;99141.53;5037154;28;20033;-80
2021/06/22 10:29:22;;;;;;;12.77;6.53;;;;;;;32.26;35.34;99133.25;5040414;28;20037;-80
2021/06/22 10:31:50;;;;;;;14.07;6.38;;;;;;;32.52;36.85;99138.53;5054426;28;20556;-80
2021/06/22 10:34:16;;;;;;;10.00;6.57;;;;;;;32.59;36.18;99122.84;5044881;28;20075;-77
2021/06/22 10:36:53;;;;;;;14.82;5.97;;;;;;;32.88;35.09;99127.06;5051127;28;20021;-77
2021/06/22 10:39:28;;;;;;;18.25;6.05;;;;;;;32.91;34.29;99126.13;5050834;28;20028;-77
2021/06/22 10:41:56;;;;;;;10.57;5.93;;;;;;;32.89;35.04;99117.88;5046773;28;20061;-77
2021/06/22 10:44:24;;;;;;;8.63;6.07;;;;;;;33.10;35.01;99112.22;5052458;28;20041;-77
2021/06/22 10:47:15;;;;;;;11.73;5.70;;;;;;;33.15;34.50;99108.59;5050485;28;20509;-77
2021/06/22 10:49:59;;;;;;;15.13;6.10;;;;;;;32.95;35.24;99112.22;5039654;28;20041;-77
2021/06/22 10:52:53;;;;;;;14.35;6.20;;;;;;;33.01;35.64;99107.34;5050651;28;20029;-77
2021/06/22 10:55:45;;;;;;;19.60;7.35;;;;;;;33.16;35.03;99109.41;5043817;28;20125;-77
2021/06/22 10:58:13;;;;;;;10.63;6.45;;;;;;;33.26;35.01;99098.50;5045328;28;20040;-78
2021/06/22 11:00:38;;;;;;;14.00;6.13;;;;;;;33.43;34.04;99102.47;5052197;28;20044;-77
2021/06/22 11:03:06;;;;;;;13.43;6.07;;;;;;;33.21;34.09;99099.22;5052056;28;20017;-77
2021/06/22 11:05:45;;;;;;;14.75;5.88;;;;;;;33.05;34.61;99095.53;5052482;28;20025;-77
2021/06/22 11:08:13;;;;;;;13.00;6.70;;;;;;;33.04;33.28;99091.84;5050299;28;20024;-77
2021/06/22 11:10:39;;;;;;;9.95;6.43;;;;;;;33.27;34.20;99094.31;5051851;28;20033;-78
2021/06/22 11:13:06;;;;;;;27.25;7.15;;;;;;;33.50;33.69;99100.47;5051794;28;20512;-78
2021/06/22 11:15:49;;;;;;;18.25;7.75;;;;;;;33.45;33.26;99094.09;5051516;28;20044;-77
2021/06/22 11:18:18;;;;;;;12.57;6.55;;;;;;;33.72;32.95;99095.00;5050145;28;20020;-78
2021/06/22 11:20:53;;;;;;;10.85;6.30;;;;;;;33.80;32.13;99094.59;5047571;28;20500;-77
2021/06/22 11:23:21;;;;;;;12.90;6.30;;;;;;;33.98;34.48;99091.44;5045186;28;20282;-77
2021/06/22 11:26:01;;;;;;;14.48;5.70;;;;;;;34.24;34.79;99081.97;5050797;28;20068;-77
2021/06/22 11:28:29;;;;;;;12.48;5.97;;;;;;;34.22;35.21;99084.59;5042946;28;20483;-78
2021/06/22 11:31:00;;;;;;;10.65;6.30;;;;;;;34.38;34.33;99077.38;5043966;28;20017;-78